LGSY

Skiros Airport

Skiros Island, Greece
TAF LGSY 221700Z 2218/2303 18012KT 9999 FEW025 BECMG 2222/2224 28010KT
Issued Valid From Valid To
Jul-22 @ 17:00 UTC
(3 hours ago)
Jul-22 @ 18:00 UTC
(2 hours ago)
Jul-23 @ 03:00 UTC
(in 7 hours)
Jul-22 @ 18:00 to Jul-22 @ 22:00
TAF LGSY 221700Z 2218/2303 18012KT 9999 FEW025
Wind Visibility Clouds
180° at 12 knots 10,000+ meters
  • Few at 2,500' AGL
Becoming Jul-22 @ 22:00 to Jul-23 @ 03:00
BECMG 2222/2224 28010KT
Wind Visibility Clouds
280° at 10 knots 10,000+ meters
  • Few at 2,500' AGL
TAF LGSY 221700Z 2218/2303 18012KT 9999 FEW025 BECMG 2222/2224 28010KT
Issued Jul-22 @ 17:00 UTC
(3 hours ago)
Valid From Jul-22 @ 18:00 UTC
(2 hours ago)
Valid To Jul-23 @ 03:00 UTC
(in 7 hours)
Jul-22 @ 18:00 - Jul-22 @ 22:00
Wind Visibility
180° at 12 knots 10,000+ meters
Clouds
  • Few at 2,500' AGL
Becoming Jul-22 @ 22:00 - Jul-23 @ 03:00
Wind Visibility
280° at 10 knots 10,000+ meters
Clouds
  • Few at 2,500' AGL